Terminal Aerodrome Forecast
Issued by NWS

Home | Current Version | Previous Version | Text Only | Print | Product List | Glossary Off
Versions: 1 2 3 4 5 6 7 8 9 10 11 12 13 14 15 16 17 18 19 20

000
FTUS43 KGRB 162338
TAFCWA
TAF
KCWA 162338Z 1700/1724 09005KT P6SM SCT020 BKN150
      TEMPO 1700/1703 BKN020
     FM170300 13008KT P6SM OVC025
     FM170500 14009KT P6SM OVC015
     FM171500 16011G21KT P6SM -FZDZ OVC015
     FM171600 16011G21KT P6SM -DZ OVC015
     FM171800 17010G19KT P6SM -RA OVC010
     FM172000 17009KT P6SM -RA OVC008
     FM172200 17007KT P6SM -RA OVC003=

USA.gov is the U.S. government's official web portal to all federal, state and local government web resources and services.